sensor_id;sensor_type;location;lat;lon;timestamp;P1;durP1;ratioP1;P2;durP2;ratioP2
13872;SDS011;7006;51.494;11.964;2023-04-24T00:00:40;4.17;;;2.63;;
13872;SDS011;7006;51.494;11.964;2023-04-24T00:03:10;3.10;;;2.60;;
13872;SDS011;7006;51.494;11.964;2023-04-24T00:05:39;5.47;;;2.77;;
13872;SDS011;7006;51.494;11.964;2023-04-24T00:08:10;3.70;;;2.53;;
13872;SDS011;7006;51.494;11.964;2023-04-24T00:10:39;4.17;;;3.03;;
13872;SDS011;7006;51.494;11.964;2023-04-24T00:13:07;2.90;;;2.60;;
13872;SDS011;7006;51.494;11.964;2023-04-24T00:15:36;3.87;;;2.50;;
13872;SDS011;7006;51.494;11.964;2023-04-24T00:18:04;4.30;;;2.60;;
13872;SDS011;7006;51.494;11.964;2023-04-24T00:20:33;2.63;;;1.87;;
13872;SDS011;7006;51.494;11.964;2023-04-24T00:23:02;3.43;;;2.10;;
13872;SDS011;7006;51.494;11.964;2023-04-24T00:25:33;2.30;;;1.60;;
13872;SDS011;7006;51.494;11.964;2023-04-24T00:28:02;3.10;;;1.73;;
13872;SDS011;7006;51.494;11.964;2023-04-24T00:30:30;6.33;;;1.87;;
13872;SDS011;7006;51.494;11.964;2023-04-24T00:32:58;2.17;;;1.57;;
13872;SDS011;7006;51.494;11.964;2023-04-24T00:35:27;2.10;;;1.50;;
13872;SDS011;7006;51.494;11.964;2023-04-24T00:37:55;2.70;;;1.40;;
13872;SDS011;7006;51.494;11.964;2023-04-24T00:40:24;3.23;;;1.60;;
13872;SDS011;7006;51.494;11.964;2023-04-24T00:42:55;2.50;;;1.57;;
13872;SDS011;7006;51.494;11.964;2023-04-24T00:45:23;3.07;;;1.57;;
13872;SDS011;7006;51.494;11.964;2023-04-24T00:47:52;1.97;;;1.33;;
13872;SDS011;7006;51.494;11.964;2023-04-24T00:50:21;1.70;;;1.17;;
13872;SDS011;7006;51.494;11.964;2023-04-24T00:52:50;1.97;;;1.13;;
13872;SDS011;7006;51.494;11.964;2023-04-24T00:55:19;2.20;;;1.50;;
13872;SDS011;7006;51.494;11.964;2023-04-24T00:57:47;1.70;;;1.13;;
13872;SDS011;7006;51.494;11.964;2023-04-24T01:00:19;1.60;;;0.93;;
13872;SDS011;7006;51.494;11.964;2023-04-24T01:02:48;2.00;;;1.40;;
13872;SDS011;7006;51.494;11.964;2023-04-24T01:05:17;1.97;;;1.20;;
13872;SDS011;7006;51.494;11.964;2023-04-24T01:07:45;1.73;;;0.97;;
13872;SDS011;7006;51.494;11.964;2023-04-24T01:10:14;1.80;;;1.00;;
13872;SDS011;7006;51.494;11.964;2023-04-24T01:12:43;1.67;;;1.07;;
13872;SDS011;7006;51.494;11.964;2023-04-24T01:15:11;2.33;;;1.33;;
13872;SDS011;7006;51.494;11.964;2023-04-24T01:17:43;1.90;;;1.00;;
13872;SDS011;7006;51.494;11.964;2023-04-24T01:20:11;1.70;;;1.00;;
13872;SDS011;7006;51.494;11.964;2023-04-24T01:22:43;1.77;;;1.13;;
13872;SDS011;7006;51.494;11.964;2023-04-24T01:25:11;3.10;;;1.33;;
13872;SDS011;7006;51.494;11.964;2023-04-24T01:27:40;3.20;;;1.30;;
13872;SDS011;7006;51.494;11.964;2023-04-24T01:30:09;2.30;;;1.37;;
13872;SDS011;7006;51.494;11.964;2023-04-24T01:32:38;1.90;;;1.00;;
13872;SDS011;7006;51.494;11.964;2023-04-24T01:35:09;2.50;;;1.27;;
13872;SDS011;7006;51.494;11.964;2023-04-24T01:37:38;2.00;;;1.27;;
13872;SDS011;7006;51.494;11.964;2023-04-24T01:40:09;2.23;;;1.30;;
13872;SDS011;7006;51.494;11.964;2023-04-24T01:42:38;2.50;;;1.30;;
13872;SDS011;7006;51.494;11.964;2023-04-24T01:45:10;2.00;;;1.40;;
13872;SDS011;7006;51.494;11.964;2023-04-24T01:47:39;3.00;;;1.67;;
13872;SDS011;7006;51.494;11.964;2023-04-24T01:50:08;2.20;;;1.23;;
13872;SDS011;7006;51.494;11.964;2023-04-24T01:52:37;2.47;;;1.20;;
13872;SDS011;7006;51.494;11.964;2023-04-24T01:55:09;3.10;;;1.30;;
13872;SDS011;7006;51.494;11.964;2023-04-24T01:57:37;2.70;;;1.50;;
13872;SDS011;7006;51.494;11.964;2023-04-24T02:00:06;1.87;;;1.37;;
13872;SDS011;7006;51.494;11.964;2023-04-24T02:02:37;3.33;;;1.47;;
13872;SDS011;7006;51.494;11.964;2023-04-24T02:05:06;2.10;;;1.60;;
13872;SDS011;7006;51.494;11.964;2023-04-24T02:07:36;5.50;;;1.37;;
13872;SDS011;7006;51.494;11.964;2023-04-24T02:10:05;2.73;;;1.40;;
13872;SDS011;7006;51.494;11.964;2023-04-24T02:12:37;2.37;;;1.43;;
13872;SDS011;7006;51.494;11.964;2023-04-24T02:15:05;3.53;;;1.30;;
13872;SDS011;7006;51.494;11.964;2023-04-24T02:17:34;2.90;;;1.70;;
13872;SDS011;7006;51.494;11.964;2023-04-24T02:20:02;2.10;;;1.47;;
13872;SDS011;7006;51.494;11.964;2023-04-24T02:22:31;3.10;;;1.57;;
13872;SDS011;7006;51.494;11.964;2023-04-24T02:25:00;3.40;;;1.60;;
13872;SDS011;7006;51.494;11.964;2023-04-24T02:27:29;2.47;;;1.70;;
13872;SDS011;7006;51.494;11.964;2023-04-24T02:30:00;2.00;;;1.50;;
13872;SDS011;7006;51.494;11.964;2023-04-24T02:32:28;2.60;;;1.67;;
13872;SDS011;7006;51.494;11.964;2023-04-24T02:34:57;2.20;;;1.50;;
13872;SDS011;7006;51.494;11.964;2023-04-24T02:37:25;1.90;;;1.17;;
13872;SDS011;7006;51.494;11.964;2023-04-24T02:39:53;5.10;;;1.70;;
13872;SDS011;7006;51.494;11.964;2023-04-24T02:42:22;2.93;;;1.83;;
13872;SDS011;7006;51.494;11.964;2023-04-24T02:44:50;1.97;;;1.33;;
13872;SDS011;7006;51.494;11.964;2023-04-24T02:47:21;2.30;;;1.70;;
13872;SDS011;7006;51.494;11.964;2023-04-24T02:49:50;2.90;;;1.80;;
13872;SDS011;7006;51.494;11.964;2023-04-24T02:52:18;2.20;;;1.80;;
13872;SDS011;7006;51.494;11.964;2023-04-24T02:54:46;3.33;;;1.83;;
13872;SDS011;7006;51.494;11.964;2023-04-24T02:57:15;2.80;;;1.60;;
13872;SDS011;7006;51.494;11.964;2023-04-24T02:59:43;3.03;;;1.70;;
13872;SDS011;7006;51.494;11.964;2023-04-24T03:02:12;2.97;;;1.70;;
13872;SDS011;7006;51.494;11.964;2023-04-24T03:04:43;2.47;;;2.13;;
13872;SDS011;7006;51.494;11.964;2023-04-24T03:07:12;3.03;;;1.80;;
13872;SDS011;7006;51.494;11.964;2023-04-24T03:09:41;2.20;;;1.50;;
13872;SDS011;7006;51.494;11.964;2023-04-24T03:12:10;2.20;;;1.43;;
13872;SDS011;7006;51.494;11.964;2023-04-24T03:14:38;2.47;;;1.80;;
13872;SDS011;7006;51.494;11.964;2023-04-24T03:17:07;3.93;;;1.87;;
13872;SDS011;7006;51.494;11.964;2023-04-24T03:19:35;2.23;;;1.67;;
13872;SDS011;7006;51.494;11.964;2023-04-24T03:22:06;4.00;;;1.60;;
13872;SDS011;7006;51.494;11.964;2023-04-24T03:24:35;2.23;;;1.60;;
13872;SDS011;7006;51.494;11.964;2023-04-24T03:27:03;2.07;;;1.50;;
13872;SDS011;7006;51.494;11.964;2023-04-24T03:29:31;3.53;;;1.70;;
13872;SDS011;7006;51.494;11.964;2023-04-24T03:32:00;3.10;;;1.90;;
13872;SDS011;7006;51.494;11.964;2023-04-24T03:34:28;2.87;;;1.70;;
13872;SDS011;7006;51.494;11.964;2023-04-24T03:36:57;4.03;;;1.90;;
13872;SDS011;7006;51.494;11.964;2023-04-24T03:39:28;2.80;;;2.00;;
13872;SDS011;7006;51.494;11.964;2023-04-24T03:41:56;2.03;;;1.50;;
13872;SDS011;7006;51.494;11.964;2023-04-24T03:44:25;3.10;;;1.80;;
13872;SDS011;7006;51.494;11.964;2023-04-24T03:46:53;2.20;;;1.50;;
13872;SDS011;7006;51.494;11.964;2023-04-24T03:49:22;3.90;;;1.90;;
13872;SDS011;7006;51.494;11.964;2023-04-24T03:51:50;2.87;;;2.17;;
13872;SDS011;7006;51.494;11.964;2023-04-24T03:54:19;2.80;;;1.80;;
13872;SDS011;7006;51.494;11.964;2023-04-24T03:56:50;2.17;;;1.73;;
13872;SDS011;7006;51.494;11.964;2023-04-24T03:59:19;4.60;;;2.00;;
13872;SDS011;7006;51.494;11.964;2023-04-24T04:01:47;2.70;;;2.13;;
13872;SDS011;7006;51.494;11.964;2023-04-24T04:04:15;2.63;;;1.60;;
13872;SDS011;7006;51.494;11.964;2023-04-24T04:06:44;2.40;;;2.03;;
13872;SDS011;7006;51.494;11.964;2023-04-24T04:09:13;3.27;;;1.90;;
13872;SDS011;7006;51.494;11.964;2023-04-24T04:11:41;4.60;;;2.23;;
13872;SDS011;7006;51.494;11.964;2023-04-24T04:14:12;3.47;;;2.40;;
13872;SDS011;7006;51.494;11.964;2023-04-24T04:16:41;3.27;;;2.40;;
13872;SDS011;7006;51.494;11.964;2023-04-24T04:19:09;2.60;;;2.00;;
13872;SDS011;7006;51.494;11.964;2023-04-24T04:21:38;2.63;;;2.03;;
13872;SDS011;7006;51.494;11.964;2023-04-24T04:24:06;2.13;;;1.90;;
13872;SDS011;7006;51.494;11.964;2023-04-24T04:26:35;3.20;;;2.03;;
13872;SDS011;7006;51.494;11.964;2023-04-24T04:29:03;2.60;;;2.00;;
13872;SDS011;7006;51.494;11.964;2023-04-24T04:31:34;2.13;;;1.80;;
13872;SDS011;7006;51.494;11.964;2023-04-24T04:34:02;2.23;;;1.87;;
13872;SDS011;7006;51.494;11.964;2023-04-24T04:36:32;2.33;;;1.80;;
13872;SDS011;7006;51.494;11.964;2023-04-24T04:39:01;3.27;;;2.00;;
13872;SDS011;7006;51.494;11.964;2023-04-24T04:41:30;2.70;;;2.13;;
13872;SDS011;7006;51.494;11.964;2023-04-24T04:44:00;2.53;;;2.30;;
13872;SDS011;7006;51.494;11.964;2023-04-24T04:46:29;2.63;;;2.07;;
13872;SDS011;7006;51.494;11.964;2023-04-24T04:49:01;3.00;;;2.17;;
13872;SDS011;7006;51.494;11.964;2023-04-24T04:51:30;2.47;;;2.00;;
13872;SDS011;7006;51.494;11.964;2023-04-24T04:53:58;3.70;;;2.20;;
13872;SDS011;7006;51.494;11.964;2023-04-24T04:56:27;3.60;;;1.80;;
13872;SDS011;7006;51.494;11.964;2023-04-24T04:58:55;3.67;;;2.10;;
13872;SDS011;7006;51.494;11.964;2023-04-24T05:01:24;2.77;;;2.47;;
13872;SDS011;7006;51.494;11.964;2023-04-24T05:03:53;3.57;;;3.27;;
13872;SDS011;7006;51.494;11.964;2023-04-24T05:06:24;3.10;;;2.77;;
13872;SDS011;7006;51.494;11.964;2023-04-24T05:08:52;3.20;;;2.60;;
13872;SDS011;7006;51.494;11.964;2023-04-24T05:11:22;3.30;;;2.30;;
13872;SDS011;7006;51.494;11.964;2023-04-24T05:13:50;4.23;;;2.50;;
13872;SDS011;7006;51.494;11.964;2023-04-24T05:16:19;2.50;;;2.03;;
13872;SDS011;7006;51.494;11.964;2023-04-24T05:18:47;3.27;;;2.57;;
13872;SDS011;7006;51.494;11.964;2023-04-24T05:21:16;4.07;;;2.40;;
13872;SDS011;7006;51.494;11.964;2023-04-24T05:23:46;3.37;;;2.50;;
13872;SDS011;7006;51.494;11.964;2023-04-24T05:26:15;3.87;;;2.10;;
13872;SDS011;7006;51.494;11.964;2023-04-24T05:28:44;3.20;;;2.47;;
13872;SDS011;7006;51.494;11.964;2023-04-24T05:31:12;2.97;;;2.40;;
13872;SDS011;7006;51.494;11.964;2023-04-24T05:33:42;3.47;;;2.70;;
13872;SDS011;7006;51.494;11.964;2023-04-24T05:36:11;3.97;;;2.33;;
13872;SDS011;7006;51.494;11.964;2023-04-24T05:38:40;4.10;;;2.60;;
13872;SDS011;7006;51.494;11.964;2023-04-24T05:41:11;3.40;;;2.53;;
13872;SDS011;7006;51.494;11.964;2023-04-24T05:43:40;4.50;;;2.80;;
13872;SDS011;7006;51.494;11.964;2023-04-24T05:46:08;2.93;;;2.47;;
13872;SDS011;7006;51.494;11.964;2023-04-24T05:48:36;5.50;;;2.50;;
13872;SDS011;7006;51.494;11.964;2023-04-24T05:51:05;3.77;;;2.27;;
13872;SDS011;7006;51.494;11.964;2023-04-24T05:53:33;3.00;;;2.60;;
13872;SDS011;7006;51.494;11.964;2023-04-24T05:56:02;3.90;;;2.70;;
13872;SDS011;7006;51.494;11.964;2023-04-24T05:58:33;2.80;;;2.23;;
13872;SDS011;7006;51.494;11.964;2023-04-24T06:01:02;4.90;;;2.23;;
13872;SDS011;7006;51.494;11.964;2023-04-24T06:03:31;3.93;;;2.43;;
13872;SDS011;7006;51.494;11.964;2023-04-24T06:05:59;4.20;;;2.10;;
13872;SDS011;7006;51.494;11.964;2023-04-24T06:08:27;4.67;;;2.27;;
13872;SDS011;7006;51.494;11.964;2023-04-24T06:10:56;2.60;;;2.00;;
13872;SDS011;7006;51.494;11.964;2023-04-24T06:13:24;3.37;;;2.03;;
13872;SDS011;7006;51.494;11.964;2023-04-24T06:15:55;4.30;;;2.00;;
13872;SDS011;7006;51.494;11.964;2023-04-24T06:18:24;3.83;;;2.00;;
13872;SDS011;7006;51.494;11.964;2023-04-24T06:20:52;3.50;;;2.43;;
13872;SDS011;7006;51.494;11.964;2023-04-24T06:23:20;4.50;;;1.77;;
13872;SDS011;7006;51.494;11.964;2023-04-24T06:25:52;4.70;;;2.10;;
13872;SDS011;7006;51.494;11.964;2023-04-24T06:28:20;4.00;;;2.33;;
13872;SDS011;7006;51.494;11.964;2023-04-24T06:30:49;3.40;;;2.10;;
13872;SDS011;7006;51.494;11.964;2023-04-24T06:33:20;3.50;;;2.27;;
13872;SDS011;7006;51.494;11.964;2023-04-24T06:35:48;5.37;;;2.60;;
13872;SDS011;7006;51.494;11.964;2023-04-24T06:38:16;2.93;;;1.70;;
13872;SDS011;7006;51.494;11.964;2023-04-24T06:40:45;2.60;;;2.10;;
13872;SDS011;7006;51.494;11.964;2023-04-24T06:43:13;5.43;;;2.47;;
13872;SDS011;7006;51.494;11.964;2023-04-24T06:45:42;2.90;;;2.50;;
13872;SDS011;7006;51.494;11.964;2023-04-24T06:48:12;3.80;;;2.10;;
13872;SDS011;7006;51.494;11.964;2023-04-24T06:50:43;2.70;;;2.20;;
13872;SDS011;7006;51.494;11.964;2023-04-24T06:53:12;2.90;;;2.53;;
13872;SDS011;7006;51.494;11.964;2023-04-24T06:55:40;2.83;;;2.37;;
13872;SDS011;7006;51.494;11.964;2023-04-24T06:58:09;3.80;;;2.10;;
13872;SDS011;7006;51.494;11.964;2023-04-24T07:00:39;2.67;;;2.03;;
13872;SDS011;7006;51.494;11.964;2023-04-24T07:03:07;3.20;;;1.93;;
13872;SDS011;7006;51.494;11.964;2023-04-24T07:05:36;3.40;;;1.90;;
13872;SDS011;7006;51.494;11.964;2023-04-24T07:08:07;3.00;;;2.20;;
13872;SDS011;7006;51.494;11.964;2023-04-24T07:10:36;2.53;;;2.03;;
13872;SDS011;7006;51.494;11.964;2023-04-24T07:13:05;2.70;;;2.03;;
13872;SDS011;7006;51.494;11.964;2023-04-24T07:15:34;3.67;;;2.03;;
13872;SDS011;7006;51.494;11.964;2023-04-24T07:18:02;3.73;;;2.10;;
13872;SDS011;7006;51.494;11.964;2023-04-24T07:20:30;3.17;;;1.70;;
13872;SDS011;7006;51.494;11.964;2023-04-24T07:22:59;3.30;;;2.10;;
13872;SDS011;7006;51.494;11.964;2023-04-24T07:25:30;3.40;;;1.63;;
13872;SDS011;7006;51.494;11.964;2023-04-24T07:27:59;2.80;;;1.83;;
13872;SDS011;7006;51.494;11.964;2023-04-24T07:30:28;2.90;;;2.20;;
13872;SDS011;7006;51.494;11.964;2023-04-24T07:32:58;2.40;;;1.70;;
13872;SDS011;7006;51.494;11.964;2023-04-24T07:35:26;1.80;;;1.17;;
13872;SDS011;7006;51.494;11.964;2023-04-24T07:37:55;3.57;;;1.93;;
13872;SDS011;7006;51.494;11.964;2023-04-24T07:40:23;5.10;;;1.50;;
13872;SDS011;7006;51.494;11.964;2023-04-24T07:42:54;2.27;;;1.40;;
13872;SDS011;7006;51.494;11.964;2023-04-24T07:45:23;4.13;;;1.80;;
13872;SDS011;7006;51.494;11.964;2023-04-24T07:47:53;2.30;;;1.37;;
13872;SDS011;7006;51.494;11.964;2023-04-24T07:50:21;2.77;;;1.40;;
13872;SDS011;7006;51.494;11.964;2023-04-24T07:52:49;4.67;;;1.73;;
13872;SDS011;7006;51.494;11.964;2023-04-24T07:55:18;3.30;;;1.60;;
13872;SDS011;7006;51.494;11.964;2023-04-24T07:57:46;2.00;;;1.30;;
13872;SDS011;7006;51.494;11.964;2023-04-24T08:00:18;3.80;;;1.97;;
13872;SDS011;7006;51.494;11.964;2023-04-24T08:02:46;2.63;;;2.07;;
13872;SDS011;7006;51.494;11.964;2023-04-24T08:05:15;2.83;;;1.90;;
13872;SDS011;7006;51.494;11.964;2023-04-24T08:07:44;2.20;;;1.70;;
13872;SDS011;7006;51.494;11.964;2023-04-24T08:10:15;2.80;;;1.70;;
13872;SDS011;7006;51.494;11.964;2023-04-24T08:12:44;6.10;;;1.90;;
13872;SDS011;7006;51.494;11.964;2023-04-24T08:15:12;2.23;;;1.33;;
13872;SDS011;7006;51.494;11.964;2023-04-24T08:17:43;2.53;;;1.80;;
13872;SDS011;7006;51.494;11.964;2023-04-24T08:20:12;1.93;;;1.37;;
13872;SDS011;7006;51.494;11.964;2023-04-24T08:22:41;3.10;;;1.60;;
13872;SDS011;7006;51.494;11.964;2023-04-24T08:25:12;1.77;;;1.27;;
13872;SDS011;7006;51.494;11.964;2023-04-24T08:27:41;2.73;;;1.83;;
13872;SDS011;7006;51.494;11.964;2023-04-24T08:30:09;2.77;;;1.80;;
13872;SDS011;7006;51.494;11.964;2023-04-24T08:32:39;5.60;;;2.10;;
13872;SDS011;7006;51.494;11.964;2023-04-24T08:35:10;2.30;;;1.70;;
13872;SDS011;7006;51.494;11.964;2023-04-24T08:37:39;3.80;;;1.80;;
13872;SDS011;7006;51.494;11.964;2023-04-24T08:40:10;2.70;;;1.60;;
13872;SDS011;7006;51.494;11.964;2023-04-24T08:42:41;2.00;;;1.20;;
13872;SDS011;7006;51.494;11.964;2023-04-24T08:45:11;2.57;;;1.70;;
13872;SDS011;7006;51.494;11.964;2023-04-24T08:47:40;2.87;;;1.40;;
13872;SDS011;7006;51.494;11.964;2023-04-24T08:50:13;3.50;;;1.47;;
13872;SDS011;7006;51.494;11.964;2023-04-24T08:52:41;1.90;;;1.30;;
13872;SDS011;7006;51.494;11.964;2023-04-24T08:55:10;3.70;;;1.40;;
13872;SDS011;7006;51.494;11.964;2023-04-24T08:57:40;2.37;;;1.80;;
13872;SDS011;7006;51.494;11.964;2023-04-24T09:00:10;2.73;;;1.50;;
13872;SDS011;7006;51.494;11.964;2023-04-24T09:02:41;3.17;;;1.67;;
13872;SDS011;7006;51.494;11.964;2023-04-24T09:05:13;3.50;;;2.30;;
13872;SDS011;7006;51.494;11.964;2023-04-24T09:07:43;2.60;;;2.00;;
13872;SDS011;7006;51.494;11.964;2023-04-24T09:10:13;2.60;;;1.67;;
13872;SDS011;7006;51.494;11.964;2023-04-24T09:12:41;2.60;;;1.60;;
13872;SDS011;7006;51.494;11.964;2023-04-24T09:15:10;2.67;;;1.90;;
13872;SDS011;7006;51.494;11.964;2023-04-24T09:17:39;2.37;;;1.60;;
13872;SDS011;7006;51.494;11.964;2023-04-24T09:20:08;2.43;;;1.87;;
13872;SDS011;7006;51.494;11.964;2023-04-24T09:22:39;3.27;;;1.90;;
13872;SDS011;7006;51.494;11.964;2023-04-24T09:25:08;3.83;;;1.70;;
13872;SDS011;7006;51.494;11.964;2023-04-24T09:27:40;1.97;;;1.50;;
13872;SDS011;7006;51.494;11.964;2023-04-24T09:30:10;3.40;;;1.87;;
13872;SDS011;7006;51.494;11.964;2023-04-24T09:32:39;3.60;;;1.70;;
13872;SDS011;7006;51.494;11.964;2023-04-24T09:35:08;4.07;;;1.63;;
13872;SDS011;7006;51.494;11.964;2023-04-24T09:37:41;2.10;;;1.30;;
13872;SDS011;7006;51.494;11.964;2023-04-24T09:40:11;5.93;;;1.90;;
13872;SDS011;7006;51.494;11.964;2023-04-24T09:42:43;2.53;;;1.53;;
13872;SDS011;7006;51.494;11.964;2023-04-24T09:45:12;3.20;;;1.30;;
13872;SDS011;7006;51.494;11.964;2023-04-24T09:47:40;5.63;;;1.57;;
13872;SDS011;7006;51.494;11.964;2023-04-24T09:50:10;3.30;;;1.73;;
13872;SDS011;7006;51.494;11.964;2023-04-24T09:52:44;2.23;;;1.73;;
13872;SDS011;7006;51.494;11.964;2023-04-24T09:55:15;4.27;;;2.10;;
13872;SDS011;7006;51.494;11.964;2023-04-24T09:57:48;5.73;;;1.97;;
13872;SDS011;7006;51.494;11.964;2023-04-24T10:00:23;3.43;;;2.00;;
13872;SDS011;7006;51.494;11.964;2023-04-24T10:02:56;3.70;;;2.17;;
13872;SDS011;7006;51.494;11.964;2023-04-24T10:05:27;2.30;;;1.50;;
13872;SDS011;7006;51.494;11.964;2023-04-24T10:07:59;3.00;;;2.47;;
13872;SDS011;7006;51.494;11.964;2023-04-24T10:10:28;4.40;;;2.70;;
13872;SDS011;7006;51.494;11.964;2023-04-24T10:12:57;2.60;;;2.03;;
13872;SDS011;7006;51.494;11.964;2023-04-24T10:15:25;2.43;;;1.93;;
13872;SDS011;7006;51.494;11.964;2023-04-24T10:17:54;4.87;;;2.30;;
13872;SDS011;7006;51.494;11.964;2023-04-24T10:20:24;2.10;;;1.70;;
13872;SDS011;7006;51.494;11.964;2023-04-24T10:22:54;3.57;;;1.83;;
13872;SDS011;7006;51.494;11.964;2023-04-24T10:25:26;3.20;;;1.80;;
13872;SDS011;7006;51.494;11.964;2023-04-24T10:27:56;3.20;;;2.00;;
13872;SDS011;7006;51.494;11.964;2023-04-24T10:30:25;4.47;;;1.47;;
13872;SDS011;7006;51.494;11.964;2023-04-24T10:32:54;2.30;;;1.67;;
13872;SDS011;7006;51.494;11.964;2023-04-24T10:35:23;4.80;;;1.77;;
13872;SDS011;7006;51.494;11.964;2023-04-24T10:37:54;3.40;;;2.13;;
13872;SDS011;7006;51.494;11.964;2023-04-24T10:40:29;3.43;;;2.30;;
13872;SDS011;7006;51.494;11.964;2023-04-24T10:42:58;3.03;;;2.27;;
13872;SDS011;7006;51.494;11.964;2023-04-24T10:45:27;3.50;;;1.70;;
13872;SDS011;7006;51.494;11.964;2023-04-24T10:47:59;2.93;;;1.70;;
13872;SDS011;7006;51.494;11.964;2023-04-24T10:50:30;2.97;;;1.70;;
13872;SDS011;7006;51.494;11.964;2023-04-24T10:53:12;2.50;;;1.87;;
13872;SDS011;7006;51.494;11.964;2023-04-24T10:55:46;3.53;;;2.20;;
13872;SDS011;7006;51.494;11.964;2023-04-24T10:58:15;2.33;;;1.70;;
13872;SDS011;7006;51.494;11.964;2023-04-24T11:00:54;3.10;;;2.30;;
13872;SDS011;7006;51.494;11.964;2023-04-24T11:03:25;2.80;;;1.70;;
13872;SDS011;7006;51.494;11.964;2023-04-24T11:05:56;2.60;;;2.10;;
13872;SDS011;7006;51.494;11.964;2023-04-24T11:08:26;3.70;;;2.20;;
13872;SDS011;7006;51.494;11.964;2023-04-24T11:11:00;2.67;;;1.83;;
13872;SDS011;7006;51.494;11.964;2023-04-24T11:16:28;3.83;;;1.47;;
13872;SDS011;7006;51.494;11.964;2023-04-24T11:19:02;4.20;;;2.43;;
13872;SDS011;7006;51.494;11.964;2023-04-24T11:21:32;3.30;;;2.00;;
13872;SDS011;7006;51.494;11.964;2023-04-24T11:26:57;8.30;;;1.90;;
13872;SDS011;7006;51.494;11.964;2023-04-24T11:29:40;3.33;;;2.03;;
13872;SDS011;7006;51.494;11.964;2023-04-24T11:32:14;2.33;;;1.83;;
13872;SDS011;7006;51.494;11.964;2023-04-24T11:34:45;3.00;;;2.03;;
13872;SDS011;7006;51.494;11.964;2023-04-24T11:37:14;2.10;;;1.23;;
13872;SDS011;7006;51.494;11.964;2023-04-24T11:39:43;4.57;;;1.97;;
13872;SDS011;7006;51.494;11.964;2023-04-24T11:42:15;2.50;;;1.70;;
13872;SDS011;7006;51.494;11.964;2023-04-24T11:44:43;2.90;;;2.20;;
13872;SDS011;7006;51.494;11.964;2023-04-24T11:47:12;2.13;;;1.60;;
13872;SDS011;7006;51.494;11.964;2023-04-24T11:49:41;3.30;;;2.07;;
13872;SDS011;7006;51.494;11.964;2023-04-24T11:52:09;4.40;;;2.57;;
13872;SDS011;7006;51.494;11.964;2023-04-24T11:54:38;3.73;;;3.03;;
13872;SDS011;7006;51.494;11.964;2023-04-24T11:57:17;3.27;;;2.40;;
13872;SDS011;7006;51.494;11.964;2023-04-24T11:59:47;3.37;;;2.07;;
13872;SDS011;7006;51.494;11.964;2023-04-24T12:02:21;4.10;;;1.97;;
13872;SDS011;7006;51.494;11.964;2023-04-24T12:04:51;3.47;;;1.90;;
13872;SDS011;7006;51.494;11.964;2023-04-24T12:07:20;4.33;;;2.60;;
13872;SDS011;7006;51.494;11.964;2023-04-24T12:09:50;3.77;;;2.17;;
13872;SDS011;7006;51.494;11.964;2023-04-24T12:12:27;2.80;;;2.50;;
13872;SDS011;7006;51.494;11.964;2023-04-24T12:14:57;3.10;;;2.50;;
13872;SDS011;7006;51.494;11.964;2023-04-24T12:17:26;4.10;;;2.80;;
13872;SDS011;7006;51.494;11.964;2023-04-24T12:19:59;5.83;;;2.40;;
13872;SDS011;7006;51.494;11.964;2023-04-24T12:22:35;4.33;;;2.67;;
13872;SDS011;7006;51.494;11.964;2023-04-24T12:25:12;3.13;;;2.27;;
13872;SDS011;7006;51.494;11.964;2023-04-24T12:27:43;7.33;;;3.00;;
13872;SDS011;7006;51.494;11.964;2023-04-24T12:30:12;4.13;;;2.10;;
13872;SDS011;7006;51.494;11.964;2023-04-24T12:32:42;3.57;;;2.10;;
13872;SDS011;7006;51.494;11.964;2023-04-24T12:35:11;3.50;;;2.43;;
13872;SDS011;7006;51.494;11.964;2023-04-24T12:37:41;3.50;;;2.33;;
13872;SDS011;7006;51.494;11.964;2023-04-24T12:40:10;3.73;;;2.67;;
13872;SDS011;7006;51.494;11.964;2023-04-24T12:42:44;4.90;;;2.60;;
13872;SDS011;7006;51.494;11.964;2023-04-24T12:45:14;3.37;;;2.43;;
13872;SDS011;7006;51.494;11.964;2023-04-24T12:47:43;4.40;;;2.43;;
13872;SDS011;7006;51.494;11.964;2023-04-24T12:50:13;4.57;;;2.90;;
13872;SDS011;7006;51.494;11.964;2023-04-24T12:52:43;3.90;;;2.70;;
13872;SDS011;7006;51.494;11.964;2023-04-24T12:55:12;5.53;;;2.67;;
13872;SDS011;7006;51.494;11.964;2023-04-24T12:57:40;5.87;;;2.40;;
13872;SDS011;7006;51.494;11.964;2023-04-24T13:00:12;5.87;;;2.53;;
13872;SDS011;7006;51.494;11.964;2023-04-24T13:02:41;2.90;;;2.00;;
13872;SDS011;7006;51.494;11.964;2023-04-24T13:05:09;5.47;;;3.07;;
13872;SDS011;7006;51.494;11.964;2023-04-24T13:07:39;3.30;;;2.20;;
13872;SDS011;7006;51.494;11.964;2023-04-24T13:10:08;3.50;;;2.60;;
13872;SDS011;7006;51.494;11.964;2023-04-24T13:12:38;4.30;;;2.50;;
13872;SDS011;7006;51.494;11.964;2023-04-24T13:15:13;2.90;;;1.90;;
13872;SDS011;7006;51.494;11.964;2023-04-24T13:17:41;2.70;;;1.97;;
13872;SDS011;7006;51.494;11.964;2023-04-24T13:20:10;4.93;;;2.27;;
13872;SDS011;7006;51.494;11.964;2023-04-24T13:22:38;4.90;;;2.57;;
13872;SDS011;7006;51.494;11.964;2023-04-24T13:25:07;3.07;;;2.53;;
13872;SDS011;7006;51.494;11.964;2023-04-24T13:27:37;5.80;;;2.77;;
13872;SDS011;7006;51.494;11.964;2023-04-24T13:30:07;5.00;;;3.00;;
13872;SDS011;7006;51.494;11.964;2023-04-24T13:32:43;6.53;;;3.07;;
13872;SDS011;7006;51.494;11.964;2023-04-24T13:35:11;3.90;;;2.40;;
13872;SDS011;7006;51.494;11.964;2023-04-24T13:37:40;2.60;;;1.90;;
13872;SDS011;7006;51.494;11.964;2023-04-24T13:40:09;4.40;;;2.23;;
13872;SDS011;7006;51.494;11.964;2023-04-24T13:42:38;2.40;;;1.90;;
13872;SDS011;7006;51.494;11.964;2023-04-24T13:45:07;2.70;;;1.90;;
13872;SDS011;7006;51.494;11.964;2023-04-24T13:47:36;3.40;;;1.93;;
13872;SDS011;7006;51.494;11.964;2023-04-24T13:50:09;2.20;;;1.60;;
13872;SDS011;7006;51.494;11.964;2023-04-24T13:52:37;5.60;;;2.60;;
13872;SDS011;7006;51.494;11.964;2023-04-24T13:55:06;2.90;;;2.20;;
13872;SDS011;7006;51.494;11.964;2023-04-24T13:57:35;3.80;;;2.70;;
13872;SDS011;7006;51.494;11.964;2023-04-24T14:00:05;4.83;;;2.17;;
13872;SDS011;7006;51.494;11.964;2023-04-24T14:02:35;2.50;;;1.97;;
13872;SDS011;7006;51.494;11.964;2023-04-24T14:05:04;4.37;;;2.47;;
13872;SDS011;7006;51.494;11.964;2023-04-24T14:07:38;3.97;;;2.27;;
13872;SDS011;7006;51.494;11.964;2023-04-24T14:10:07;3.87;;;2.20;;
13872;SDS011;7006;51.494;11.964;2023-04-24T14:12:36;5.40;;;4.10;;
13872;SDS011;7006;51.494;11.964;2023-04-24T14:15:05;4.90;;;3.60;;
13872;SDS011;7006;51.494;11.964;2023-04-24T14:17:35;3.50;;;2.57;;
13872;SDS011;7006;51.494;11.964;2023-04-24T14:20:04;3.20;;;1.70;;
13872;SDS011;7006;51.494;11.964;2023-04-24T14:22:34;3.07;;;1.60;;
13872;SDS011;7006;51.494;11.964;2023-04-24T14:25:05;2.80;;;1.90;;
13872;SDS011;7006;51.494;11.964;2023-04-24T14:27:34;4.93;;;1.20;;
13872;SDS011;7006;51.494;11.964;2023-04-24T14:30:03;1.67;;;1.07;;
13872;SDS011;7006;51.494;11.964;2023-04-24T14:32:32;3.77;;;1.13;;
13872;SDS011;7006;51.494;11.964;2023-04-24T14:35:01;1.80;;;1.10;;
13872;SDS011;7006;51.494;11.964;2023-04-24T14:37:29;2.60;;;2.00;;
13872;SDS011;7006;51.494;11.964;2023-04-24T14:39:58;1.87;;;1.10;;
13872;SDS011;7006;51.494;11.964;2023-04-24T14:42:29;2.33;;;1.30;;
13872;SDS011;7006;51.494;11.964;2023-04-24T14:44:57;2.90;;;0.90;;
13872;SDS011;7006;51.494;11.964;2023-04-24T14:47:26;3.63;;;1.77;;
13872;SDS011;7006;51.494;11.964;2023-04-24T14:49:54;2.60;;;0.70;;
13872;SDS011;7006;51.494;11.964;2023-04-24T14:52:23;2.80;;;1.27;;
13872;SDS011;7006;51.494;11.964;2023-04-24T14:54:51;1.50;;;0.83;;
13872;SDS011;7006;51.494;11.964;2023-04-24T14:57:20;2.57;;;0.80;;
13872;SDS011;7006;51.494;11.964;2023-04-24T14:59:51;1.37;;;0.63;;
13872;SDS011;7006;51.494;11.964;2023-04-24T15:02:19;2.70;;;1.10;;
13872;SDS011;7006;51.494;11.964;2023-04-24T15:04:48;2.80;;;0.73;;
13872;SDS011;7006;51.494;11.964;2023-04-24T15:07:16;2.60;;;0.93;;